sensor_id;sensor_type;location;lat;lon;timestamp;P1;durP1;ratioP1;P2;durP2;ratioP2
57627;SDS011;43451;49.060;10.616;2023-10-19T00:02:13;19.05;;;11.70;;
57627;SDS011;43451;49.060;10.616;2023-10-19T00:04:40;17.85;;;12.00;;
57627;SDS011;43451;49.060;10.616;2023-10-19T00:07:06;17.70;;;12.35;;
57627;SDS011;43451;49.060;10.616;2023-10-19T00:09:33;17.23;;;12.60;;
57627;SDS011;43451;49.060;10.616;2023-10-19T00:12:03;17.90;;;12.25;;
57627;SDS011;43451;49.060;10.616;2023-10-19T00:14:31;18.45;;;12.68;;
57627;SDS011;43451;49.060;10.616;2023-10-19T00:16:57;19.55;;;12.93;;
57627;SDS011;43451;49.060;10.616;2023-10-19T00:19:26;21.65;;;13.35;;
57627;SDS011;43451;49.060;10.616;2023-10-19T00:21:55;21.08;;;13.98;;
57627;SDS011;43451;49.060;10.616;2023-10-19T00:24:27;23.73;;;14.48;;
57627;SDS011;43451;49.060;10.616;2023-10-19T00:26:56;23.20;;;13.70;;
57627;SDS011;43451;49.060;10.616;2023-10-19T00:29:22;20.20;;;13.55;;
57627;SDS011;43451;49.060;10.616;2023-10-19T00:31:58;24.13;;;14.43;;
57627;SDS011;43451;49.060;10.616;2023-10-19T00:34:24;21.20;;;13.57;;
57627;SDS011;43451;49.060;10.616;2023-10-19T00:36:54;19.90;;;13.88;;
57627;SDS011;43451;49.060;10.616;2023-10-19T00:39:21;21.00;;;14.20;;
57627;SDS011;43451;49.060;10.616;2023-10-19T00:41:48;20.80;;;14.38;;
57627;SDS011;43451;49.060;10.616;2023-10-19T00:44:14;24.30;;;14.88;;
57627;SDS011;43451;49.060;10.616;2023-10-19T00:46:47;22.25;;;14.07;;
57627;SDS011;43451;49.060;10.616;2023-10-19T00:49:20;22.13;;;14.27;;
57627;SDS011;43451;49.060;10.616;2023-10-19T00:51:49;20.92;;;13.85;;
57627;SDS011;43451;49.060;10.616;2023-10-19T00:54:18;21.48;;;14.25;;
57627;SDS011;43451;49.060;10.616;2023-10-19T00:56:52;23.50;;;14.80;;
57627;SDS011;43451;49.060;10.616;2023-10-19T00:59:21;22.17;;;14.55;;
57627;SDS011;43451;49.060;10.616;2023-10-19T01:01:52;21.98;;;14.40;;
57627;SDS011;43451;49.060;10.616;2023-10-19T01:04:37;22.27;;;14.45;;
57627;SDS011;43451;49.060;10.616;2023-10-19T01:07:07;20.85;;;14.38;;
57627;SDS011;43451;49.060;10.616;2023-10-19T01:09:55;21.55;;;14.75;;
57627;SDS011;43451;49.060;10.616;2023-10-19T01:12:25;21.23;;;14.63;;
57627;SDS011;43451;49.060;10.616;2023-10-19T01:15:07;22.02;;;14.77;;
57627;SDS011;43451;49.060;10.616;2023-10-19T01:17:38;21.42;;;14.40;;
57627;SDS011;43451;49.060;10.616;2023-10-19T01:20:05;20.35;;;14.38;;
57627;SDS011;43451;49.060;10.616;2023-10-19T01:22:56;22.75;;;15.27;;
57627;SDS011;43451;49.060;10.616;2023-10-19T01:25:45;25.08;;;15.50;;
57627;SDS011;43451;49.060;10.616;2023-10-19T01:28:23;21.13;;;14.48;;
57627;SDS011;43451;49.060;10.616;2023-10-19T01:31:05;26.63;;;15.07;;
57627;SDS011;43451;49.060;10.616;2023-10-19T01:33:31;24.92;;;15.32;;
57627;SDS011;43451;49.060;10.616;2023-10-19T01:35:59;22.42;;;15.38;;
57627;SDS011;43451;49.060;10.616;2023-10-19T01:38:38;22.48;;;15.23;;
57627;SDS011;43451;49.060;10.616;2023-10-19T01:41:04;21.90;;;15.13;;
57627;SDS011;43451;49.060;10.616;2023-10-19T01:43:43;23.60;;;14.55;;
57627;SDS011;43451;49.060;10.616;2023-10-19T01:46:11;22.45;;;15.32;;
57627;SDS011;43451;49.060;10.616;2023-10-19T01:48:41;24.95;;;15.00;;
57627;SDS011;43451;49.060;10.616;2023-10-19T01:51:11;23.65;;;15.55;;
57627;SDS011;43451;49.060;10.616;2023-10-19T01:53:40;24.70;;;15.85;;
57627;SDS011;43451;49.060;10.616;2023-10-19T01:56:10;22.33;;;15.35;;
57627;SDS011;43451;49.060;10.616;2023-10-19T01:58:40;24.92;;;16.10;;
57627;SDS011;43451;49.060;10.616;2023-10-19T02:01:07;24.65;;;16.52;;
57627;SDS011;43451;49.060;10.616;2023-10-19T02:06:03;22.83;;;15.23;;
57627;SDS011;43451;49.060;10.616;2023-10-19T02:08:41;22.40;;;15.13;;
57627;SDS011;43451;49.060;10.616;2023-10-19T02:11:23;23.80;;;16.02;;
57627;SDS011;43451;49.060;10.616;2023-10-19T02:13:50;23.33;;;15.55;;
57627;SDS011;43451;49.060;10.616;2023-10-19T02:16:19;24.90;;;15.30;;
57627;SDS011;43451;49.060;10.616;2023-10-19T02:21:13;25.67;;;15.93;;
57627;SDS011;43451;49.060;10.616;2023-10-19T02:23:40;25.88;;;16.05;;
57627;SDS011;43451;49.060;10.616;2023-10-19T02:26:08;23.30;;;15.48;;
57627;SDS011;43451;49.060;10.616;2023-10-19T02:28:37;24.50;;;16.00;;
57627;SDS011;43451;49.060;10.616;2023-10-19T02:31:03;27.05;;;17.23;;
57627;SDS011;43451;49.060;10.616;2023-10-19T02:33:46;24.02;;;15.98;;
57627;SDS011;43451;49.060;10.616;2023-10-19T02:36:12;26.17;;;17.02;;
57627;SDS011;43451;49.060;10.616;2023-10-19T02:38:41;27.58;;;16.77;;
57627;SDS011;43451;49.060;10.616;2023-10-19T02:41:14;24.50;;;17.17;;
57627;SDS011;43451;49.060;10.616;2023-10-19T02:43:41;26.25;;;16.80;;
57627;SDS011;43451;49.060;10.616;2023-10-19T02:46:10;26.45;;;16.33;;
57627;SDS011;43451;49.060;10.616;2023-10-19T02:48:38;23.55;;;16.10;;
57627;SDS011;43451;49.060;10.616;2023-10-19T02:51:09;26.27;;;16.58;;
57627;SDS011;43451;49.060;10.616;2023-10-19T02:53:36;25.52;;;16.20;;
57627;SDS011;43451;49.060;10.616;2023-10-19T02:56:10;26.85;;;16.45;;
57627;SDS011;43451;49.060;10.616;2023-10-19T02:58:44;24.65;;;16.67;;
57627;SDS011;43451;49.060;10.616;2023-10-19T03:01:20;25.98;;;16.42;;
57627;SDS011;43451;49.060;10.616;2023-10-19T03:03:50;26.42;;;17.35;;
57627;SDS011;43451;49.060;10.616;2023-10-19T03:06:22;24.42;;;16.67;;
57627;SDS011;43451;49.060;10.616;2023-10-19T03:08:48;24.02;;;16.40;;
57627;SDS011;43451;49.060;10.616;2023-10-19T03:11:26;24.65;;;15.63;;
57627;SDS011;43451;49.060;10.616;2023-10-19T03:13:53;25.23;;;16.30;;
57627;SDS011;43451;49.060;10.616;2023-10-19T03:16:19;26.17;;;16.98;;
57627;SDS011;43451;49.060;10.616;2023-10-19T03:18:46;25.23;;;16.48;;
57627;SDS011;43451;49.060;10.616;2023-10-19T03:21:12;24.67;;;16.65;;
57627;SDS011;43451;49.060;10.616;2023-10-19T03:23:37;24.52;;;16.65;;
57627;SDS011;43451;49.060;10.616;2023-10-19T03:26:03;26.23;;;16.92;;
57627;SDS011;43451;49.060;10.616;2023-10-19T03:28:48;27.02;;;16.95;;
57627;SDS011;43451;49.060;10.616;2023-10-19T03:31:19;26.17;;;17.13;;
57627;SDS011;43451;49.060;10.616;2023-10-19T03:33:46;25.25;;;16.73;;
57627;SDS011;43451;49.060;10.616;2023-10-19T03:36:22;24.98;;;16.85;;
57627;SDS011;43451;49.060;10.616;2023-10-19T03:38:49;27.05;;;17.88;;
57627;SDS011;43451;49.060;10.616;2023-10-19T03:41:17;28.52;;;18.23;;
57627;SDS011;43451;49.060;10.616;2023-10-19T03:43:48;23.65;;;16.85;;
57627;SDS011;43451;49.060;10.616;2023-10-19T03:46:16;27.55;;;17.33;;
57627;SDS011;43451;49.060;10.616;2023-10-19T03:48:53;24.27;;;17.13;;
57627;SDS011;43451;49.060;10.616;2023-10-19T03:51:23;25.52;;;16.65;;
57627;SDS011;43451;49.060;10.616;2023-10-19T03:53:51;24.48;;;16.75;;
57627;SDS011;43451;49.060;10.616;2023-10-19T03:56:23;26.17;;;17.17;;
57627;SDS011;43451;49.060;10.616;2023-10-19T03:58:49;26.13;;;17.73;;
57627;SDS011;43451;49.060;10.616;2023-10-19T04:01:17;26.20;;;17.20;;
57627;SDS011;43451;49.060;10.616;2023-10-19T04:03:44;24.65;;;16.40;;
57627;SDS011;43451;49.060;10.616;2023-10-19T04:06:10;27.83;;;17.67;;
57627;SDS011;43451;49.060;10.616;2023-10-19T04:08:40;27.38;;;17.40;;
57627;SDS011;43451;49.060;10.616;2023-10-19T04:11:08;24.98;;;17.17;;
57627;SDS011;43451;49.060;10.616;2023-10-19T04:13:37;26.55;;;16.73;;
57627;SDS011;43451;49.060;10.616;2023-10-19T04:16:03;26.38;;;16.88;;
57627;SDS011;43451;49.060;10.616;2023-10-19T04:18:33;26.75;;;17.45;;
57627;SDS011;43451;49.060;10.616;2023-10-19T04:21:00;27.30;;;16.92;;
57627;SDS011;43451;49.060;10.616;2023-10-19T04:23:27;25.13;;;17.00;;
57627;SDS011;43451;49.060;10.616;2023-10-19T04:25:56;24.23;;;16.60;;
57627;SDS011;43451;49.060;10.616;2023-10-19T04:28:22;24.65;;;16.95;;
57627;SDS011;43451;49.060;10.616;2023-10-19T04:31:03;23.27;;;16.20;;
57627;SDS011;43451;49.060;10.616;2023-10-19T04:33:31;23.73;;;16.48;;
57627;SDS011;43451;49.060;10.616;2023-10-19T04:35:59;21.83;;;15.70;;
57627;SDS011;43451;49.060;10.616;2023-10-19T04:38:26;24.95;;;17.23;;
57627;SDS011;43451;49.060;10.616;2023-10-19T04:40:52;23.58;;;16.38;;
57627;SDS011;43451;49.060;10.616;2023-10-19T04:43:18;26.50;;;17.25;;
57627;SDS011;43451;49.060;10.616;2023-10-19T04:45:44;26.23;;;17.63;;
57627;SDS011;43451;49.060;10.616;2023-10-19T04:48:10;28.40;;;17.77;;
57627;SDS011;43451;49.060;10.616;2023-10-19T04:50:35;23.90;;;16.95;;
57627;SDS011;43451;49.060;10.616;2023-10-19T04:53:01;23.40;;;16.55;;
57627;SDS011;43451;49.060;10.616;2023-10-19T04:55:28;25.98;;;17.77;;
57627;SDS011;43451;49.060;10.616;2023-10-19T04:57:55;22.38;;;16.13;;
57627;SDS011;43451;49.060;10.616;2023-10-19T05:00:22;26.17;;;17.02;;
57627;SDS011;43451;49.060;10.616;2023-10-19T05:02:49;23.15;;;16.10;;
57627;SDS011;43451;49.060;10.616;2023-10-19T05:05:17;25.02;;;17.10;;
57627;SDS011;43451;49.060;10.616;2023-10-19T05:07:43;27.42;;;17.30;;
57627;SDS011;43451;49.060;10.616;2023-10-19T05:10:09;24.92;;;16.80;;
57627;SDS011;43451;49.060;10.616;2023-10-19T05:12:36;22.83;;;16.33;;
57627;SDS011;43451;49.060;10.616;2023-10-19T05:15:01;24.23;;;16.50;;
57627;SDS011;43451;49.060;10.616;2023-10-19T05:17:27;28.13;;;16.73;;
57627;SDS011;43451;49.060;10.616;2023-10-19T05:19:53;26.13;;;17.65;;
57627;SDS011;43451;49.060;10.616;2023-10-19T05:22:18;26.77;;;17.65;;
57627;SDS011;43451;49.060;10.616;2023-10-19T05:24:44;24.17;;;17.05;;
57627;SDS011;43451;49.060;10.616;2023-10-19T05:27:10;24.92;;;16.83;;
57627;SDS011;43451;49.060;10.616;2023-10-19T05:29:37;27.77;;;17.60;;
57627;SDS011;43451;49.060;10.616;2023-10-19T05:32:03;26.65;;;17.55;;
57627;SDS011;43451;49.060;10.616;2023-10-19T05:34:29;26.75;;;17.83;;
57627;SDS011;43451;49.060;10.616;2023-10-19T05:36:56;26.13;;;17.88;;
57627;SDS011;43451;49.060;10.616;2023-10-19T05:39:24;27.52;;;17.95;;
57627;SDS011;43451;49.060;10.616;2023-10-19T05:41:55;26.30;;;17.90;;
57627;SDS011;43451;49.060;10.616;2023-10-19T05:44:21;26.63;;;17.65;;
57627;SDS011;43451;49.060;10.616;2023-10-19T05:46:50;25.60;;;17.83;;
57627;SDS011;43451;49.060;10.616;2023-10-19T05:49:16;26.95;;;17.45;;
57627;SDS011;43451;49.060;10.616;2023-10-19T05:51:42;26.42;;;17.58;;
57627;SDS011;43451;49.060;10.616;2023-10-19T05:54:09;27.52;;;17.45;;
57627;SDS011;43451;49.060;10.616;2023-10-19T05:56:35;26.27;;;17.33;;
57627;SDS011;43451;49.060;10.616;2023-10-19T05:59:01;24.40;;;16.92;;
57627;SDS011;43451;49.060;10.616;2023-10-19T06:01:27;25.08;;;17.00;;
57627;SDS011;43451;49.060;10.616;2023-10-19T06:03:52;28.10;;;18.08;;
57627;SDS011;43451;49.060;10.616;2023-10-19T06:06:21;26.95;;;18.70;;
57627;SDS011;43451;49.060;10.616;2023-10-19T06:08:47;28.75;;;19.30;;
57627;SDS011;43451;49.060;10.616;2023-10-19T06:11:14;27.95;;;18.42;;
57627;SDS011;43451;49.060;10.616;2023-10-19T06:13:40;29.33;;;18.77;;
57627;SDS011;43451;49.060;10.616;2023-10-19T06:16:06;26.13;;;17.40;;
57627;SDS011;43451;49.060;10.616;2023-10-19T06:18:31;26.55;;;17.92;;
57627;SDS011;43451;49.060;10.616;2023-10-19T06:20:57;26.10;;;17.10;;
57627;SDS011;43451;49.060;10.616;2023-10-19T06:23:22;26.92;;;17.33;;
57627;SDS011;43451;49.060;10.616;2023-10-19T06:25:48;29.83;;;18.75;;
57627;SDS011;43451;49.060;10.616;2023-10-19T06:28:16;25.83;;;17.50;;
57627;SDS011;43451;49.060;10.616;2023-10-19T06:30:42;25.75;;;17.27;;
57627;SDS011;43451;49.060;10.616;2023-10-19T06:33:08;26.38;;;17.63;;
57627;SDS011;43451;49.060;10.616;2023-10-19T06:35:33;27.20;;;17.83;;
57627;SDS011;43451;49.060;10.616;2023-10-19T06:37:59;28.85;;;18.05;;
57627;SDS011;43451;49.060;10.616;2023-10-19T06:40:26;28.73;;;18.13;;
57627;SDS011;43451;49.060;10.616;2023-10-19T06:42:54;26.35;;;17.88;;
57627;SDS011;43451;49.060;10.616;2023-10-19T06:45:24;27.05;;;18.58;;
57627;SDS011;43451;49.060;10.616;2023-10-19T06:47:51;30.15;;;18.80;;
57627;SDS011;43451;49.060;10.616;2023-10-19T06:50:21;27.75;;;18.10;;
57627;SDS011;43451;49.060;10.616;2023-10-19T06:52:47;28.52;;;18.25;;
57627;SDS011;43451;49.060;10.616;2023-10-19T06:55:15;27.40;;;18.17;;
57627;SDS011;43451;49.060;10.616;2023-10-19T06:57:44;25.60;;;17.80;;
57627;SDS011;43451;49.060;10.616;2023-10-19T07:00:11;27.00;;;17.33;;
57627;SDS011;43451;49.060;10.616;2023-10-19T07:02:45;28.33;;;17.95;;
57627;SDS011;43451;49.060;10.616;2023-10-19T07:05:12;26.15;;;18.13;;
57627;SDS011;43451;49.060;10.616;2023-10-19T07:07:40;24.85;;;17.10;;
57627;SDS011;43451;49.060;10.616;2023-10-19T07:10:09;25.33;;;17.98;;
57627;SDS011;43451;49.060;10.616;2023-10-19T07:12:37;28.25;;;17.80;;
57627;SDS011;43451;49.060;10.616;2023-10-19T07:15:05;25.00;;;17.48;;
57627;SDS011;43451;49.060;10.616;2023-10-19T07:17:33;27.08;;;17.33;;
57627;SDS011;43451;49.060;10.616;2023-10-19T07:20:03;25.73;;;17.83;;
57627;SDS011;43451;49.060;10.616;2023-10-19T07:22:31;23.90;;;16.40;;
57627;SDS011;43451;49.060;10.616;2023-10-19T07:24:57;24.02;;;16.35;;
57627;SDS011;43451;49.060;10.616;2023-10-19T07:27:23;22.60;;;15.45;;
57627;SDS011;43451;49.060;10.616;2023-10-19T07:29:52;23.55;;;15.85;;
57627;SDS011;43451;49.060;10.616;2023-10-19T07:32:18;24.80;;;17.08;;
57627;SDS011;43451;49.060;10.616;2023-10-19T07:34:43;25.52;;;15.85;;
57627;SDS011;43451;49.060;10.616;2023-10-19T07:37:10;22.35;;;15.95;;
57627;SDS011;43451;49.060;10.616;2023-10-19T07:39:49;22.92;;;15.88;;
57627;SDS011;43451;49.060;10.616;2023-10-19T07:42:21;24.05;;;16.27;;
57627;SDS011;43451;49.060;10.616;2023-10-19T07:44:47;24.55;;;16.45;;
57627;SDS011;43451;49.060;10.616;2023-10-19T07:47:12;22.40;;;15.60;;
57627;SDS011;43451;49.060;10.616;2023-10-19T07:49:38;25.75;;;16.10;;
57627;SDS011;43451;49.060;10.616;2023-10-19T07:52:04;23.67;;;15.70;;
57627;SDS011;43451;49.060;10.616;2023-10-19T07:54:32;23.17;;;15.85;;
57627;SDS011;43451;49.060;10.616;2023-10-19T07:56:59;24.73;;;16.20;;
57627;SDS011;43451;49.060;10.616;2023-10-19T07:59:28;25.73;;;15.70;;
57627;SDS011;43451;49.060;10.616;2023-10-19T08:01:54;23.45;;;15.48;;
57627;SDS011;43451;49.060;10.616;2023-10-19T08:04:20;22.83;;;15.52;;
57627;SDS011;43451;49.060;10.616;2023-10-19T08:06:45;21.92;;;15.45;;
57627;SDS011;43451;49.060;10.616;2023-10-19T08:09:12;24.07;;;15.33;;
57627;SDS011;43451;49.060;10.616;2023-10-19T08:11:38;22.52;;;15.43;;
57627;SDS011;43451;49.060;10.616;2023-10-19T08:14:03;21.60;;;15.52;;
57627;SDS011;43451;49.060;10.616;2023-10-19T08:16:30;21.30;;;15.18;;
57627;SDS011;43451;49.060;10.616;2023-10-19T08:18:57;21.98;;;14.85;;
57627;SDS011;43451;49.060;10.616;2023-10-19T08:21:22;21.95;;;15.60;;
57627;SDS011;43451;49.060;10.616;2023-10-19T08:23:48;21.45;;;15.27;;
57627;SDS011;43451;49.060;10.616;2023-10-19T08:26:13;23.13;;;15.73;;
57627;SDS011;43451;49.060;10.616;2023-10-19T08:28:40;22.10;;;15.70;;
57627;SDS011;43451;49.060;10.616;2023-10-19T08:31:07;21.45;;;15.75;;
57627;SDS011;43451;49.060;10.616;2023-10-19T08:33:35;20.80;;;15.80;;
57627;SDS011;43451;49.060;10.616;2023-10-19T08:36:04;23.13;;;15.88;;
57627;SDS011;43451;49.060;10.616;2023-10-19T08:38:30;22.42;;;16.00;;
57627;SDS011;43451;49.060;10.616;2023-10-19T08:40:55;24.33;;;16.15;;
57627;SDS011;43451;49.060;10.616;2023-10-19T08:43:21;24.77;;;16.50;;
57627;SDS011;43451;49.060;10.616;2023-10-19T08:45:47;22.73;;;16.17;;
57627;SDS011;43451;49.060;10.616;2023-10-19T08:48:12;25.15;;;16.73;;
57627;SDS011;43451;49.060;10.616;2023-10-19T08:50:39;24.83;;;16.05;;
57627;SDS011;43451;49.060;10.616;2023-10-19T08:53:06;22.75;;;15.23;;
57627;SDS011;43451;49.060;10.616;2023-10-19T08:55:50;23.42;;;16.70;;
57627;SDS011;43451;49.060;10.616;2023-10-19T08:58:19;23.23;;;15.77;;
57627;SDS011;43451;49.060;10.616;2023-10-19T09:00:49;22.45;;;15.75;;
57627;SDS011;43451;49.060;10.616;2023-10-19T09:03:22;22.33;;;16.13;;
57627;SDS011;43451;49.060;10.616;2023-10-19T09:05:49;24.05;;;16.27;;
57627;SDS011;43451;49.060;10.616;2023-10-19T09:08:19;21.23;;;15.80;;
57627;SDS011;43451;49.060;10.616;2023-10-19T09:10:47;22.20;;;15.82;;
57627;SDS011;43451;49.060;10.616;2023-10-19T09:13:14;22.65;;;15.90;;
57627;SDS011;43451;49.060;10.616;2023-10-19T09:15:43;21.77;;;15.63;;
57627;SDS011;43451;49.060;10.616;2023-10-19T09:18:15;22.88;;;15.98;;
57627;SDS011;43451;49.060;10.616;2023-10-19T09:20:42;23.40;;;16.15;;
57627;SDS011;43451;49.060;10.616;2023-10-19T09:23:32;22.50;;;15.35;;
57627;SDS011;43451;49.060;10.616;2023-10-19T09:25:58;22.55;;;16.35;;
57627;SDS011;43451;49.060;10.616;2023-10-19T09:28:28;19.75;;;15.05;;
57627;SDS011;43451;49.060;10.616;2023-10-19T09:30:54;24.88;;;16.80;;
57627;SDS011;43451;49.060;10.616;2023-10-19T09:33:21;24.08;;;17.08;;
57627;SDS011;43451;49.060;10.616;2023-10-19T09:35:47;24.25;;;16.70;;
57627;SDS011;43451;49.060;10.616;2023-10-19T09:38:15;22.88;;;15.77;;
57627;SDS011;43451;49.060;10.616;2023-10-19T09:40:46;24.52;;;16.70;;
57627;SDS011;43451;49.060;10.616;2023-10-19T09:43:19;23.80;;;16.45;;
57627;SDS011;43451;49.060;10.616;2023-10-19T09:45:51;21.10;;;15.90;;
57627;SDS011;43451;49.060;10.616;2023-10-19T09:48:23;22.05;;;16.27;;
57627;SDS011;43451;49.060;10.616;2023-10-19T09:50:53;21.17;;;15.93;;
57627;SDS011;43451;49.060;10.616;2023-10-19T09:53:22;20.98;;;15.48;;
57627;SDS011;43451;49.060;10.616;2023-10-19T09:55:50;20.40;;;14.90;;
57627;SDS011;43451;49.060;10.616;2023-10-19T09:58:19;22.73;;;15.75;;
57627;SDS011;43451;49.060;10.616;2023-10-19T10:00:48;20.08;;;15.48;;
57627;SDS011;43451;49.060;10.616;2023-10-19T10:06:15;21.42;;;14.80;;
57627;SDS011;43451;49.060;10.616;2023-10-19T10:08:46;21.05;;;15.02;;
57627;SDS011;43451;49.060;10.616;2023-10-19T10:11:14;21.17;;;15.13;;
57627;SDS011;43451;49.060;10.616;2023-10-19T10:13:44;21.20;;;15.13;;
57627;SDS011;43451;49.060;10.616;2023-10-19T10:16:14;22.75;;;15.52;;
57627;SDS011;43451;49.060;10.616;2023-10-19T10:18:42;18.63;;;14.50;;
57627;SDS011;43451;49.060;10.616;2023-10-19T10:21:12;19.85;;;14.35;;
57627;SDS011;43451;49.060;10.616;2023-10-19T10:26:23;23.15;;;15.45;;
57627;SDS011;43451;49.060;10.616;2023-10-19T10:29:14;20.95;;;14.57;;
57627;SDS011;43451;49.060;10.616;2023-10-19T10:31:46;21.75;;;15.10;;
57627;SDS011;43451;49.060;10.616;2023-10-19T10:37:05;19.30;;;14.25;;
57627;SDS011;43451;49.060;10.616;2023-10-19T10:39:36;17.55;;;13.63;;
57627;SDS011;43451;49.060;10.616;2023-10-19T10:42:03;18.75;;;13.50;;
57627;SDS011;43451;49.060;10.616;2023-10-19T10:47:15;17.55;;;13.38;;
57627;SDS011;43451;49.060;10.616;2023-10-19T10:49:50;16.70;;;12.73;;
57627;SDS011;43451;49.060;10.616;2023-10-19T10:52:29;19.88;;;14.13;;
57627;SDS011;43451;49.060;10.616;2023-10-19T10:54:57;18.58;;;13.05;;
57627;SDS011;43451;49.060;10.616;2023-10-19T11:00:00;17.48;;;13.55;;
57627;SDS011;43451;49.060;10.616;2023-10-19T11:02:47;15.00;;;12.77;;
57627;SDS011;43451;49.060;10.616;2023-10-19T11:05:25;16.10;;;12.77;;
57627;SDS011;43451;49.060;10.616;2023-10-19T11:10:32;16.90;;;13.57;;
57627;SDS011;43451;49.060;10.616;2023-10-19T11:22:14;16.80;;;13.32;;
57627;SDS011;43451;49.060;10.616;2023-10-19T11:24:39;16.20;;;12.65;;
57627;SDS011;43451;49.060;10.616;2023-10-19T11:27:08;17.60;;;13.13;;
57627;SDS011;43451;49.060;10.616;2023-10-19T11:29:35;17.33;;;13.45;;
57627;SDS011;43451;49.060;10.616;2023-10-19T11:35:26;17.05;;;13.30;;
57627;SDS011;43451;49.060;10.616;2023-10-19T11:37:54;16.92;;;12.90;;
57627;SDS011;43451;49.060;10.616;2023-10-19T11:42:48;18.67;;;12.50;;
57627;SDS011;43451;49.060;10.616;2023-10-19T11:45:14;17.45;;;13.27;;
57627;SDS011;43451;49.060;10.616;2023-10-19T11:51:02;16.52;;;13.43;;
57627;SDS011;43451;49.060;10.616;2023-10-19T11:56:50;16.45;;;12.70;;
57627;SDS011;43451;49.060;10.616;2023-10-19T11:59:16;15.43;;;12.65;;
57627;SDS011;43451;49.060;10.616;2023-10-19T12:01:41;18.40;;;14.10;;
57627;SDS011;43451;49.060;10.616;2023-10-19T12:04:07;18.17;;;13.88;;
57627;SDS011;43451;49.060;10.616;2023-10-19T12:06:34;19.92;;;12.90;;
57627;SDS011;43451;49.060;10.616;2023-10-19T12:09:00;16.05;;;12.63;;
57627;SDS011;43451;49.060;10.616;2023-10-19T12:11:36;15.38;;;12.75;;
57627;SDS011;43451;49.060;10.616;2023-10-19T12:14:16;17.25;;;13.15;;
57627;SDS011;43451;49.060;10.616;2023-10-19T12:16:41;17.98;;;12.93;;
57627;SDS011;43451;49.060;10.616;2023-10-19T12:19:07;17.67;;;13.50;;
57627;SDS011;43451;49.060;10.616;2023-10-19T12:21:38;18.77;;;13.93;;
57627;SDS011;43451;49.060;10.616;2023-10-19T12:24:23;19.15;;;13.88;;
57627;SDS011;43451;49.060;10.616;2023-10-19T12:26:49;19.02;;;13.70;;
57627;SDS011;43451;49.060;10.616;2023-10-19T12:29:16;17.73;;;13.52;;
57627;SDS011;43451;49.060;10.616;2023-10-19T12:31:47;18.15;;;13.75;;
57627;SDS011;43451;49.060;10.616;2023-10-19T12:37:36;19.08;;;14.70;;
57627;SDS011;43451;49.060;10.616;2023-10-19T12:40:04;19.27;;;14.07;;
57627;SDS011;43451;49.060;10.616;2023-10-19T12:42:51;19.23;;;14.18;;
57627;SDS011;43451;49.060;10.616;2023-10-19T12:48:25;19.83;;;14.40;;
57627;SDS011;43451;49.060;10.616;2023-10-19T12:57:12;22.23;;;14.65;;
57627;SDS011;43451;49.060;10.616;2023-10-19T13:02:14;20.85;;;14.68;;
57627;SDS011;43451;49.060;10.616;2023-10-19T13:10:19;23.05;;;15.55;;
57627;SDS011;43451;49.060;10.616;2023-10-19T13:12:59;19.75;;;14.65;;
57627;SDS011;43451;49.060;10.616;2023-10-19T13:15:28;22.27;;;16.10;;
57627;SDS011;43451;49.060;10.616;2023-10-19T13:17:57;21.80;;;15.98;;
57627;SDS011;43451;49.060;10.616;2023-10-19T13:20:45;20.90;;;15.90;;
57627;SDS011;43451;49.060;10.616;2023-10-19T13:23:13;22.70;;;15.93;;
57627;SDS011;43451;49.060;10.616;2023-10-19T13:25:55;21.98;;;16.35;;
57627;SDS011;43451;49.060;10.616;2023-10-19T13:34:36;18.88;;;15.32;;
57627;SDS011;43451;49.060;10.616;2023-10-19T13:39:53;23.42;;;16.75;;
57627;SDS011;43451;49.060;10.616;2023-10-19T13:45:46;21.08;;;15.82;;
57627;SDS011;43451;49.060;10.616;2023-10-19T13:48:13;22.05;;;15.32;;
57627;SDS011;43451;49.060;10.616;2023-10-19T13:59:29;20.08;;;15.35;;
57627;SDS011;43451;49.060;10.616;2023-10-19T14:02:06;22.63;;;15.88;;
57627;SDS011;43451;49.060;10.616;2023-10-19T14:04:44;20.55;;;15.43;;
57627;SDS011;43451;49.060;10.616;2023-10-19T14:07:24;21.17;;;15.63;;
57627;SDS011;43451;49.060;10.616;2023-10-19T14:18:47;20.85;;;15.15;;
57627;SDS011;43451;49.060;10.616;2023-10-19T14:21:13;21.10;;;15.00;;
57627;SDS011;43451;49.060;10.616;2023-10-19T14:23:40;22.00;;;15.75;;
57627;SDS011;43451;49.060;10.616;2023-10-19T14:29:20;20.50;;;15.23;;
57627;SDS011;43451;49.060;10.616;2023-10-19T14:31:52;20.45;;;15.77;;
57627;SDS011;43451;49.060;10.616;2023-10-19T14:37:41;22.63;;;14.75;;
57627;SDS011;43451;49.060;10.616;2023-10-19T14:40:09;20.45;;;14.35;;
57627;SDS011;43451;49.060;10.616;2023-10-19T14:42:39;21.40;;;15.25;;
57627;SDS011;43451;49.060;10.616;2023-10-19T14:45:08;22.27;;;14.98;;
57627;SDS011;43451;49.060;10.616;2023-10-19T14:50:34;20.58;;;15.50;;
57627;SDS011;43451;49.060;10.616;2023-10-19T14:53:12;19.58;;;14.93;;
57627;SDS011;43451;49.060;10.616;2023-10-19T14:55:37;19.08;;;14.50;;
57627;SDS011;43451;49.060;10.616;2023-10-19T14:58:19;19.98;;;15.13;;
57627;SDS011;43451;49.060;10.616;2023-10-19T15:00:45;19.50;;;14.35;;
57627;SDS011;43451;49.060;10.616;2023-10-19T15:03:23;19.17;;;15.00;;
57627;SDS011;43451;49.060;10.616;2023-10-19T15:11:44;20.45;;;14.55;;
57627;SDS011;43451;49.060;10.616;2023-10-19T15:14:10;18.80;;;13.73;;
57627;SDS011;43451;49.060;10.616;2023-10-19T15:16:36;17.90;;;13.35;;
57627;SDS011;43451;49.060;10.616;2023-10-19T15:19:07;22.65;;;15.63;;
57627;SDS011;43451;49.060;10.616;2023-10-19T15:21:49;18.23;;;14.13;;
57627;SDS011;43451;49.060;10.616;2023-10-19T15:30:54;18.30;;;13.07;;
57627;SDS011;43451;49.060;10.616;2023-10-19T15:33:19;23.17;;;14.30;;
57627;SDS011;43451;49.060;10.616;2023-10-19T15:35:47;20.88;;;15.02;;
57627;SDS011;43451;49.060;10.616;2023-10-19T15:38:12;19.33;;;14.88;;
57627;SDS011;43451;49.060;10.616;2023-10-19T15:40:38;23.08;;;16.75;;
57627;SDS011;43451;49.060;10.616;2023-10-19T15:43:07;23.70;;;15.93;;
57627;SDS011;43451;49.060;10.616;2023-10-19T15:45:32;22.00;;;16.83;;
57627;SDS011;43451;49.060;10.616;2023-10-19T15:48:02;20.27;;;15.43;;
57627;SDS011;43451;49.060;10.616;2023-10-19T15:57:27;20.80;;;15.77;;
57627;SDS011;43451;49.060;10.616;2023-10-19T15:59:53;19.95;;;15.60;;
57627;SDS011;43451;49.060;10.616;2023-10-19T16:02:19;22.15;;;16.25;;
57627;SDS011;43451;49.060;10.616;2023-10-19T16:04:45;21.70;;;17.38;;
57627;SDS011;43451;49.060;10.616;2023-10-19T16:10:01;23.67;;;16.55;;
57627;SDS011;43451;49.060;10.616;2023-10-19T16:12:27;23.58;;;16.90;;
57627;SDS011;43451;49.060;10.616;2023-10-19T16:17:41;22.70;;;15.77;;
57627;SDS011;43451;49.060;10.616;2023-10-19T16:20:08;22.35;;;15.35;;
57627;SDS011;43451;49.060;10.616;2023-10-19T16:22:34;25.42;;;16.83;;
57627;SDS011;43451;49.060;10.616;2023-10-19T16:25:00;23.13;;;15.95;;
57627;SDS011;43451;49.060;10.616;2023-10-19T16:39:11;29.95;;;19.92;;
57627;SDS011;43451;49.060;10.616;2023-10-19T16:41:52;29.00;;;18.73;;